sensor_id;sensor_type;location;lat;lon;timestamp;P1;durP1;ratioP1;P2;durP2;ratioP2
12171;SDS011;6149;52.418;13.668;2023-07-02T00:00:21;5.03;;;2.67;;
12171;SDS011;6149;52.418;13.668;2023-07-02T00:02:49;4.37;;;2.60;;
12171;SDS011;6149;52.418;13.668;2023-07-02T00:05:19;2.63;;;2.43;;
12171;SDS011;6149;52.418;13.668;2023-07-02T00:07:45;2.87;;;2.60;;
12171;SDS011;6149;52.418;13.668;2023-07-02T00:10:12;6.43;;;2.40;;
12171;SDS011;6149;52.418;13.668;2023-07-02T00:12:42;2.67;;;2.40;;
12171;SDS011;6149;52.418;13.668;2023-07-02T00:15:09;2.57;;;2.37;;
12171;SDS011;6149;52.418;13.668;2023-07-02T00:17:37;5.07;;;2.60;;
12171;SDS011;6149;52.418;13.668;2023-07-02T00:20:11;3.23;;;2.40;;
12171;SDS011;6149;52.418;13.668;2023-07-02T00:22:42;2.53;;;2.33;;
12171;SDS011;6149;52.418;13.668;2023-07-02T00:25:10;2.50;;;2.20;;
12171;SDS011;6149;52.418;13.668;2023-07-02T00:27:37;2.67;;;2.23;;
12171;SDS011;6149;52.418;13.668;2023-07-02T00:30:08;2.70;;;2.47;;
12171;SDS011;6149;52.418;13.668;2023-07-02T00:32:37;2.70;;;2.13;;
12171;SDS011;6149;52.418;13.668;2023-07-02T00:35:04;3.27;;;2.60;;
12171;SDS011;6149;52.418;13.668;2023-07-02T00:37:33;4.83;;;2.57;;
12171;SDS011;6149;52.418;13.668;2023-07-02T00:40:03;2.77;;;2.47;;
12171;SDS011;6149;52.418;13.668;2023-07-02T00:42:34;2.47;;;2.13;;
12171;SDS011;6149;52.418;13.668;2023-07-02T00:45:01;2.30;;;2.17;;
12171;SDS011;6149;52.418;13.668;2023-07-02T00:47:28;4.33;;;2.33;;
12171;SDS011;6149;52.418;13.668;2023-07-02T00:49:57;4.30;;;2.10;;
12171;SDS011;6149;52.418;13.668;2023-07-02T00:52:27;2.27;;;2.00;;
12171;SDS011;6149;52.418;13.668;2023-07-02T00:54:58;2.47;;;2.27;;
12171;SDS011;6149;52.418;13.668;2023-07-02T00:57:25;2.50;;;2.30;;
12171;SDS011;6149;52.418;13.668;2023-07-02T00:59:55;4.93;;;2.47;;
12171;SDS011;6149;52.418;13.668;2023-07-02T01:02:23;4.00;;;2.07;;
12171;SDS011;6149;52.418;13.668;2023-07-02T01:04:50;2.80;;;2.40;;
12171;SDS011;6149;52.418;13.668;2023-07-02T01:07:23;2.87;;;2.37;;
12171;SDS011;6149;52.418;13.668;2023-07-02T01:09:52;3.23;;;2.93;;
12171;SDS011;6149;52.418;13.668;2023-07-02T01:12:22;5.30;;;2.63;;
12171;SDS011;6149;52.418;13.668;2023-07-02T01:14:50;5.10;;;2.87;;
12171;SDS011;6149;52.418;13.668;2023-07-02T01:17:20;2.57;;;2.37;;
12171;SDS011;6149;52.418;13.668;2023-07-02T01:19:50;3.60;;;2.93;;
12171;SDS011;6149;52.418;13.668;2023-07-02T01:22:19;3.20;;;2.90;;
12171;SDS011;6149;52.418;13.668;2023-07-02T01:24:48;3.23;;;2.93;;
12171;SDS011;6149;52.418;13.668;2023-07-02T01:27:15;3.40;;;2.97;;
12171;SDS011;6149;52.418;13.668;2023-07-02T01:29:45;3.80;;;2.87;;
12171;SDS011;6149;52.418;13.668;2023-07-02T01:32:12;3.40;;;3.10;;
12171;SDS011;6149;52.418;13.668;2023-07-02T01:34:40;11.23;;;3.33;;
12171;SDS011;6149;52.418;13.668;2023-07-02T01:37:10;4.40;;;3.73;;
12171;SDS011;6149;52.418;13.668;2023-07-02T01:39:38;5.50;;;3.40;;
12171;SDS011;6149;52.418;13.668;2023-07-02T01:42:10;6.87;;;3.70;;
12171;SDS011;6149;52.418;13.668;2023-07-02T01:44:42;4.03;;;3.60;;
12171;SDS011;6149;52.418;13.668;2023-07-02T01:47:10;6.17;;;3.87;;
12171;SDS011;6149;52.418;13.668;2023-07-02T01:49:38;5.60;;;3.77;;
12171;SDS011;6149;52.418;13.668;2023-07-02T01:52:05;4.73;;;4.03;;
12171;SDS011;6149;52.418;13.668;2023-07-02T01:54:36;4.10;;;3.70;;
12171;SDS011;6149;52.418;13.668;2023-07-02T01:57:03;3.93;;;3.47;;
12171;SDS011;6149;52.418;13.668;2023-07-02T01:59:33;4.77;;;4.13;;
12171;SDS011;6149;52.418;13.668;2023-07-02T02:02:03;3.73;;;3.43;;
12171;SDS011;6149;52.418;13.668;2023-07-02T02:04:30;4.67;;;3.80;;
12171;SDS011;6149;52.418;13.668;2023-07-02T02:06:58;5.17;;;3.80;;
12171;SDS011;6149;52.418;13.668;2023-07-02T02:09:27;4.77;;;4.00;;
12171;SDS011;6149;52.418;13.668;2023-07-02T02:11:59;6.17;;;4.00;;
12171;SDS011;6149;52.418;13.668;2023-07-02T02:14:27;4.70;;;4.30;;
12171;SDS011;6149;52.418;13.668;2023-07-02T02:16:53;4.50;;;4.20;;
12171;SDS011;6149;52.418;13.668;2023-07-02T02:19:23;4.97;;;4.33;;
12171;SDS011;6149;52.418;13.668;2023-07-02T02:21:52;5.43;;;4.23;;
12171;SDS011;6149;52.418;13.668;2023-07-02T02:24:18;5.03;;;4.33;;
12171;SDS011;6149;52.418;13.668;2023-07-02T02:26:48;4.93;;;4.50;;
12171;SDS011;6149;52.418;13.668;2023-07-02T02:29:16;5.13;;;4.37;;
12171;SDS011;6149;52.418;13.668;2023-07-02T02:31:42;5.47;;;4.90;;
12171;SDS011;6149;52.418;13.668;2023-07-02T02:34:10;6.07;;;5.57;;
12171;SDS011;6149;52.418;13.668;2023-07-02T02:36:37;7.10;;;6.40;;
12171;SDS011;6149;52.418;13.668;2023-07-02T02:39:05;5.80;;;5.30;;
12171;SDS011;6149;52.418;13.668;2023-07-02T02:41:32;5.67;;;5.17;;
12171;SDS011;6149;52.418;13.668;2023-07-02T02:44:00;5.23;;;4.83;;
12171;SDS011;6149;52.418;13.668;2023-07-02T02:46:30;5.23;;;4.80;;
12171;SDS011;6149;52.418;13.668;2023-07-02T02:48:58;6.07;;;5.47;;
12171;SDS011;6149;52.418;13.668;2023-07-02T02:51:24;6.23;;;4.80;;
12171;SDS011;6149;52.418;13.668;2023-07-02T02:53:51;5.73;;;5.23;;
12171;SDS011;6149;52.418;13.668;2023-07-02T02:56:18;5.50;;;5.10;;
12171;SDS011;6149;52.418;13.668;2023-07-02T02:58:46;5.63;;;5.13;;
12171;SDS011;6149;52.418;13.668;2023-07-02T03:01:13;5.17;;;4.73;;
12171;SDS011;6149;52.418;13.668;2023-07-02T03:03:42;6.53;;;5.10;;
12171;SDS011;6149;52.418;13.668;2023-07-02T03:06:11;6.40;;;4.93;;
12171;SDS011;6149;52.418;13.668;2023-07-02T03:08:41;5.20;;;4.70;;
12171;SDS011;6149;52.418;13.668;2023-07-02T03:11:07;6.10;;;4.97;;
12171;SDS011;6149;52.418;13.668;2023-07-02T03:13:37;4.90;;;4.50;;
12171;SDS011;6149;52.418;13.668;2023-07-02T03:16:07;5.60;;;4.60;;
12171;SDS011;6149;52.418;13.668;2023-07-02T03:18:35;5.83;;;4.70;;
12171;SDS011;6149;52.418;13.668;2023-07-02T03:21:08;5.67;;;4.27;;
12171;SDS011;6149;52.418;13.668;2023-07-02T03:23:35;5.13;;;4.13;;
12171;SDS011;6149;52.418;13.668;2023-07-02T03:26:02;4.73;;;4.27;;
12171;SDS011;6149;52.418;13.668;2023-07-02T03:28:30;5.33;;;4.20;;
12171;SDS011;6149;52.418;13.668;2023-07-02T03:30:59;4.40;;;4.00;;
12171;SDS011;6149;52.418;13.668;2023-07-02T03:33:25;7.20;;;4.37;;
12171;SDS011;6149;52.418;13.668;2023-07-02T03:35:53;5.20;;;4.70;;
12171;SDS011;6149;52.418;13.668;2023-07-02T03:38:25;5.17;;;4.40;;
12171;SDS011;6149;52.418;13.668;2023-07-02T03:40:54;4.27;;;3.97;;
12171;SDS011;6149;52.418;13.668;2023-07-02T03:43:20;4.93;;;3.97;;
12171;SDS011;6149;52.418;13.668;2023-07-02T03:45:47;4.93;;;3.90;;
12171;SDS011;6149;52.418;13.668;2023-07-02T03:48:14;5.77;;;3.83;;
12171;SDS011;6149;52.418;13.668;2023-07-02T03:50:41;4.53;;;4.00;;
12171;SDS011;6149;52.418;13.668;2023-07-02T03:53:09;4.80;;;4.00;;
12171;SDS011;6149;52.418;13.668;2023-07-02T03:55:38;5.67;;;3.83;;
12171;SDS011;6149;52.418;13.668;2023-07-02T03:58:08;5.63;;;3.80;;
12171;SDS011;6149;52.418;13.668;2023-07-02T04:00:38;5.70;;;3.97;;
12171;SDS011;6149;52.418;13.668;2023-07-02T04:03:10;6.57;;;4.53;;
12171;SDS011;6149;52.418;13.668;2023-07-02T04:05:40;4.77;;;4.30;;
12171;SDS011;6149;52.418;13.668;2023-07-02T04:08:08;4.20;;;3.77;;
12171;SDS011;6149;52.418;13.668;2023-07-02T04:10:36;5.40;;;4.47;;
12171;SDS011;6149;52.418;13.668;2023-07-02T04:13:10;5.43;;;4.30;;
12171;SDS011;6149;52.418;13.668;2023-07-02T04:15:38;6.63;;;4.50;;
12171;SDS011;6149;52.418;13.668;2023-07-02T04:18:07;5.80;;;4.37;;
12171;SDS011;6149;52.418;13.668;2023-07-02T04:20:35;5.37;;;4.37;;
12171;SDS011;6149;52.418;13.668;2023-07-02T04:23:05;4.80;;;4.27;;
12171;SDS011;6149;52.418;13.668;2023-07-02T04:25:33;6.03;;;4.07;;
12171;SDS011;6149;52.418;13.668;2023-07-02T04:28:01;4.07;;;3.77;;
12171;SDS011;6149;52.418;13.668;2023-07-02T04:30:28;6.80;;;4.07;;
12171;SDS011;6149;52.418;13.668;2023-07-02T04:32:54;4.73;;;4.30;;
12171;SDS011;6149;52.418;13.668;2023-07-02T04:35:23;6.07;;;4.27;;
12171;SDS011;6149;52.418;13.668;2023-07-02T04:37:51;5.97;;;4.10;;
12171;SDS011;6149;52.418;13.668;2023-07-02T04:40:17;4.53;;;3.93;;
12171;SDS011;6149;52.418;13.668;2023-07-02T04:42:46;4.33;;;3.70;;
12171;SDS011;6149;52.418;13.668;2023-07-02T04:45:14;6.83;;;3.90;;
12171;SDS011;6149;52.418;13.668;2023-07-02T04:47:43;4.30;;;3.53;;
12171;SDS011;6149;52.418;13.668;2023-07-02T04:50:10;6.57;;;3.43;;
12171;SDS011;6149;52.418;13.668;2023-07-02T04:52:38;6.27;;;3.77;;
12171;SDS011;6149;52.418;13.668;2023-07-02T04:55:07;5.73;;;3.30;;
12171;SDS011;6149;52.418;13.668;2023-07-02T04:57:35;4.27;;;3.40;;
12171;SDS011;6149;52.418;13.668;2023-07-02T05:00:03;3.70;;;3.40;;
12171;SDS011;6149;52.418;13.668;2023-07-02T05:02:38;4.17;;;3.70;;
12171;SDS011;6149;52.418;13.668;2023-07-02T05:05:05;5.50;;;3.43;;
12171;SDS011;6149;52.418;13.668;2023-07-02T05:07:33;3.30;;;3.00;;
12171;SDS011;6149;52.418;13.668;2023-07-02T05:09:59;4.43;;;3.10;;
12171;SDS011;6149;52.418;13.668;2023-07-02T05:12:26;5.97;;;3.67;;
12171;SDS011;6149;52.418;13.668;2023-07-02T05:14:55;3.93;;;3.13;;
12171;SDS011;6149;52.418;13.668;2023-07-02T05:17:24;4.73;;;3.33;;
12171;SDS011;6149;52.418;13.668;2023-07-02T05:19:54;4.53;;;3.20;;
12171;SDS011;6149;52.418;13.668;2023-07-02T05:22:21;3.73;;;3.27;;
12171;SDS011;6149;52.418;13.668;2023-07-02T05:24:47;3.20;;;2.93;;
12171;SDS011;6149;52.418;13.668;2023-07-02T05:27:14;3.83;;;2.97;;
12171;SDS011;6149;52.418;13.668;2023-07-02T05:29:42;6.47;;;3.37;;
12171;SDS011;6149;52.418;13.668;2023-07-02T05:32:10;5.30;;;3.50;;
12171;SDS011;6149;52.418;13.668;2023-07-02T05:34:38;7.27;;;3.50;;
12171;SDS011;6149;52.418;13.668;2023-07-02T05:37:06;3.37;;;3.00;;
12171;SDS011;6149;52.418;13.668;2023-07-02T05:39:33;4.37;;;3.20;;
12171;SDS011;6149;52.418;13.668;2023-07-02T05:42:04;4.43;;;3.33;;
12171;SDS011;6149;52.418;13.668;2023-07-02T05:44:34;6.07;;;3.43;;
12171;SDS011;6149;52.418;13.668;2023-07-02T05:47:02;6.77;;;2.90;;
12171;SDS011;6149;52.418;13.668;2023-07-02T05:49:29;4.27;;;2.83;;
12171;SDS011;6149;52.418;13.668;2023-07-02T05:51:55;4.90;;;3.07;;
12171;SDS011;6149;52.418;13.668;2023-07-02T05:54:23;3.23;;;2.93;;
12171;SDS011;6149;52.418;13.668;2023-07-02T05:56:50;5.00;;;3.13;;
12171;SDS011;6149;52.418;13.668;2023-07-02T05:59:16;4.30;;;2.90;;
12171;SDS011;6149;52.418;13.668;2023-07-02T06:01:44;5.83;;;3.27;;
12171;SDS011;6149;52.418;13.668;2023-07-02T06:04:11;3.33;;;3.03;;
12171;SDS011;6149;52.418;13.668;2023-07-02T06:06:41;5.10;;;3.03;;
12171;SDS011;6149;52.418;13.668;2023-07-02T06:09:08;4.40;;;3.10;;
12171;SDS011;6149;52.418;13.668;2023-07-02T06:11:39;4.23;;;3.00;;
12171;SDS011;6149;52.418;13.668;2023-07-02T06:14:09;6.73;;;3.60;;
12171;SDS011;6149;52.418;13.668;2023-07-02T06:16:36;5.37;;;3.43;;
12171;SDS011;6149;52.418;13.668;2023-07-02T06:19:03;3.30;;;3.00;;
12171;SDS011;6149;52.418;13.668;2023-07-02T06:21:33;3.77;;;3.10;;
12171;SDS011;6149;52.418;13.668;2023-07-02T06:24:01;3.57;;;3.10;;
12171;SDS011;6149;52.418;13.668;2023-07-02T06:26:28;4.57;;;3.30;;
12171;SDS011;6149;52.418;13.668;2023-07-02T06:28:59;3.80;;;2.97;;
12171;SDS011;6149;52.418;13.668;2023-07-02T06:31:26;3.97;;;2.97;;
12171;SDS011;6149;52.418;13.668;2023-07-02T06:33:52;5.33;;;3.00;;
12171;SDS011;6149;52.418;13.668;2023-07-02T06:36:19;3.33;;;2.80;;
12171;SDS011;6149;52.418;13.668;2023-07-02T06:38:46;3.23;;;2.77;;
12171;SDS011;6149;52.418;13.668;2023-07-02T06:41:13;4.43;;;3.00;;
12171;SDS011;6149;52.418;13.668;2023-07-02T06:43:41;4.30;;;2.63;;
12171;SDS011;6149;52.418;13.668;2023-07-02T06:46:10;4.80;;;2.70;;
12171;SDS011;6149;52.418;13.668;2023-07-02T06:48:39;4.17;;;2.87;;
12171;SDS011;6149;52.418;13.668;2023-07-02T06:51:09;4.37;;;2.77;;
12171;SDS011;6149;52.418;13.668;2023-07-02T06:53:38;3.30;;;2.90;;
12171;SDS011;6149;52.418;13.668;2023-07-02T06:56:07;8.43;;;3.00;;
12171;SDS011;6149;52.418;13.668;2023-07-02T06:58:34;4.23;;;2.93;;
12171;SDS011;6149;52.418;13.668;2023-07-02T07:01:03;4.80;;;2.87;;
12171;SDS011;6149;52.418;13.668;2023-07-02T07:03:34;5.33;;;2.97;;
12171;SDS011;6149;52.418;13.668;2023-07-02T07:06:02;5.47;;;2.90;;
12171;SDS011;6149;52.418;13.668;2023-07-02T07:08:31;8.40;;;2.97;;
12171;SDS011;6149;52.418;13.668;2023-07-02T07:10:59;3.00;;;2.67;;
12171;SDS011;6149;52.418;13.668;2023-07-02T07:13:27;8.50;;;3.00;;
12171;SDS011;6149;52.418;13.668;2023-07-02T07:15:54;4.40;;;2.57;;
12171;SDS011;6149;52.418;13.668;2023-07-02T07:18:20;3.97;;;2.73;;
12171;SDS011;6149;52.418;13.668;2023-07-02T07:20:50;3.67;;;2.40;;
12171;SDS011;6149;52.418;13.668;2023-07-02T07:23:18;4.37;;;3.07;;
12171;SDS011;6149;52.418;13.668;2023-07-02T07:25:45;4.73;;;2.87;;
12171;SDS011;6149;52.418;13.668;2023-07-02T07:28:12;5.67;;;2.80;;
12171;SDS011;6149;52.418;13.668;2023-07-02T07:30:42;3.47;;;2.50;;
12171;SDS011;6149;52.418;13.668;2023-07-02T07:33:10;4.17;;;2.87;;
12171;SDS011;6149;52.418;13.668;2023-07-02T07:35:38;5.47;;;2.70;;
12171;SDS011;6149;52.418;13.668;2023-07-02T07:38:10;8.47;;;3.00;;
12171;SDS011;6149;52.418;13.668;2023-07-02T07:40:40;3.83;;;3.07;;
12171;SDS011;6149;52.418;13.668;2023-07-02T07:43:08;4.53;;;2.80;;
12171;SDS011;6149;52.418;13.668;2023-07-02T07:45:36;6.20;;;2.97;;
12171;SDS011;6149;52.418;13.668;2023-07-02T07:48:04;6.60;;;2.90;;
12171;SDS011;6149;52.418;13.668;2023-07-02T07:50:33;3.33;;;2.57;;
12171;SDS011;6149;52.418;13.668;2023-07-02T07:52:59;5.73;;;2.93;;
12171;SDS011;6149;52.418;13.668;2023-07-02T07:55:27;4.87;;;3.00;;
12171;SDS011;6149;52.418;13.668;2023-07-02T07:57:56;6.10;;;2.80;;
12171;SDS011;6149;52.418;13.668;2023-07-02T08:00:23;4.23;;;2.90;;
12171;SDS011;6149;52.418;13.668;2023-07-02T08:02:52;3.37;;;2.50;;
12171;SDS011;6149;52.418;13.668;2023-07-02T08:05:20;7.87;;;3.27;;
12171;SDS011;6149;52.418;13.668;2023-07-02T08:07:48;4.57;;;3.03;;
12171;SDS011;6149;52.418;13.668;2023-07-02T08:10:16;5.90;;;2.77;;
12171;SDS011;6149;52.418;13.668;2023-07-02T08:12:44;3.00;;;2.60;;
12171;SDS011;6149;52.418;13.668;2023-07-02T08:15:12;4.53;;;2.63;;
12171;SDS011;6149;52.418;13.668;2023-07-02T08:17:40;3.67;;;2.93;;
12171;SDS011;6149;52.418;13.668;2023-07-02T08:20:07;4.07;;;3.23;;
12171;SDS011;6149;52.418;13.668;2023-07-02T08:22:39;4.97;;;3.50;;
12171;SDS011;6149;52.418;13.668;2023-07-02T08:25:08;4.47;;;2.97;;
12171;SDS011;6149;52.418;13.668;2023-07-02T08:27:36;4.80;;;2.57;;
12171;SDS011;6149;52.418;13.668;2023-07-02T08:30:09;4.13;;;2.77;;
12171;SDS011;6149;52.418;13.668;2023-07-02T08:32:38;4.27;;;2.60;;
12171;SDS011;6149;52.418;13.668;2023-07-02T08:35:05;4.07;;;2.60;;
12171;SDS011;6149;52.418;13.668;2023-07-02T08:37:40;4.60;;;2.77;;
12171;SDS011;6149;52.418;13.668;2023-07-02T08:40:15;4.50;;;2.93;;
12171;SDS011;6149;52.418;13.668;2023-07-02T08:42:42;5.17;;;2.70;;
12171;SDS011;6149;52.418;13.668;2023-07-02T08:45:14;3.47;;;2.60;;
12171;SDS011;6149;52.418;13.668;2023-07-02T08:47:42;3.10;;;2.80;;
12171;SDS011;6149;52.418;13.668;2023-07-02T08:50:11;3.47;;;3.17;;
12171;SDS011;6149;52.418;13.668;2023-07-02T08:52:39;5.40;;;3.23;;
12171;SDS011;6149;52.418;13.668;2023-07-02T08:55:09;6.43;;;3.20;;
12171;SDS011;6149;52.418;13.668;2023-07-02T08:57:39;5.80;;;3.47;;
12171;SDS011;6149;52.418;13.668;2023-07-02T09:00:09;5.33;;;3.87;;
12171;SDS011;6149;52.418;13.668;2023-07-02T09:02:44;7.97;;;3.67;;
12171;SDS011;6149;52.418;13.668;2023-07-02T09:05:14;5.43;;;3.83;;
12171;SDS011;6149;52.418;13.668;2023-07-02T09:07:43;7.43;;;3.70;;
12171;SDS011;6149;52.418;13.668;2023-07-02T09:10:25;5.93;;;4.10;;
12171;SDS011;6149;52.418;13.668;2023-07-02T09:13:02;5.87;;;3.80;;
12171;SDS011;6149;52.418;13.668;2023-07-02T09:15:35;6.50;;;4.23;;
12171;SDS011;6149;52.418;13.668;2023-07-02T09:18:17;6.00;;;4.30;;
12171;SDS011;6149;52.418;13.668;2023-07-02T09:20:45;6.57;;;3.80;;
12171;SDS011;6149;52.418;13.668;2023-07-02T09:23:12;7.00;;;4.00;;
12171;SDS011;6149;52.418;13.668;2023-07-02T09:25:39;10.27;;;4.30;;
12171;SDS011;6149;52.418;13.668;2023-07-02T09:28:21;7.73;;;4.50;;
12171;SDS011;6149;52.418;13.668;2023-07-02T09:30:52;7.43;;;4.63;;
12171;SDS011;6149;52.418;13.668;2023-07-02T09:33:23;8.83;;;4.43;;
12171;SDS011;6149;52.418;13.668;2023-07-02T09:35:51;6.40;;;4.10;;
12171;SDS011;6149;52.418;13.668;2023-07-02T09:38:18;6.47;;;4.53;;
12171;SDS011;6149;52.418;13.668;2023-07-02T09:40:46;6.07;;;3.80;;
12171;SDS011;6149;52.418;13.668;2023-07-02T09:43:17;8.33;;;4.07;;
12171;SDS011;6149;52.418;13.668;2023-07-02T09:45:45;4.90;;;3.80;;
12171;SDS011;6149;52.418;13.668;2023-07-02T09:48:16;6.87;;;4.77;;
12171;SDS011;6149;52.418;13.668;2023-07-02T09:50:47;6.20;;;4.20;;
12171;SDS011;6149;52.418;13.668;2023-07-02T09:53:16;6.03;;;4.47;;
12171;SDS011;6149;52.418;13.668;2023-07-02T09:55:43;7.63;;;4.70;;
12171;SDS011;6149;52.418;13.668;2023-07-02T09:58:11;7.77;;;3.90;;
12171;SDS011;6149;52.418;13.668;2023-07-02T10:00:39;4.87;;;3.77;;
12171;SDS011;6149;52.418;13.668;2023-07-02T10:03:09;6.80;;;4.03;;
12171;SDS011;6149;52.418;13.668;2023-07-02T10:05:38;7.33;;;4.50;;
12171;SDS011;6149;52.418;13.668;2023-07-02T10:08:14;7.77;;;4.87;;
12171;SDS011;6149;52.418;13.668;2023-07-02T10:10:43;5.57;;;4.37;;
12171;SDS011;6149;52.418;13.668;2023-07-02T10:13:11;5.87;;;4.30;;
12171;SDS011;6149;52.418;13.668;2023-07-02T10:15:37;6.90;;;4.83;;
12171;SDS011;6149;52.418;13.668;2023-07-02T10:18:06;6.70;;;4.57;;
12171;SDS011;6149;52.418;13.668;2023-07-02T10:20:36;6.93;;;5.13;;
12171;SDS011;6149;52.418;13.668;2023-07-02T10:23:05;6.57;;;4.97;;
12171;SDS011;6149;52.418;13.668;2023-07-02T10:25:42;5.43;;;4.87;;
12171;SDS011;6149;52.418;13.668;2023-07-02T10:28:17;7.83;;;5.30;;
12171;SDS011;6149;52.418;13.668;2023-07-02T10:30:47;6.47;;;5.03;;
12171;SDS011;6149;52.418;13.668;2023-07-02T10:33:16;6.50;;;4.90;;
12171;SDS011;6149;52.418;13.668;2023-07-02T10:35:44;8.77;;;5.17;;
12171;SDS011;6149;52.418;13.668;2023-07-02T10:38:14;9.53;;;5.60;;
12171;SDS011;6149;52.418;13.668;2023-07-02T10:40:46;10.53;;;5.53;;
12171;SDS011;6149;52.418;13.668;2023-07-02T10:43:23;9.60;;;5.57;;
12171;SDS011;6149;52.418;13.668;2023-07-02T10:45:51;7.77;;;5.53;;
12171;SDS011;6149;52.418;13.668;2023-07-02T10:48:17;8.53;;;5.03;;
12171;SDS011;6149;52.418;13.668;2023-07-02T10:50:44;9.20;;;6.07;;
12171;SDS011;6149;52.418;13.668;2023-07-02T10:53:14;6.53;;;5.30;;
12171;SDS011;6149;52.418;13.668;2023-07-02T10:55:43;9.37;;;5.80;;
12171;SDS011;6149;52.418;13.668;2023-07-02T10:58:13;11.33;;;5.90;;
12171;SDS011;6149;52.418;13.668;2023-07-02T11:00:43;9.90;;;6.20;;
12171;SDS011;6149;52.418;13.668;2023-07-02T11:03:17;9.07;;;5.93;;
12171;SDS011;6149;52.418;13.668;2023-07-02T11:05:45;8.03;;;5.80;;
12171;SDS011;6149;52.418;13.668;2023-07-02T11:08:13;10.60;;;5.97;;
12171;SDS011;6149;52.418;13.668;2023-07-02T11:10:40;8.37;;;5.90;;
12171;SDS011;6149;52.418;13.668;2023-07-02T11:13:14;11.93;;;6.50;;
12171;SDS011;6149;52.418;13.668;2023-07-02T11:15:42;9.03;;;6.40;;
12171;SDS011;6149;52.418;13.668;2023-07-02T11:18:12;10.07;;;6.60;;
12171;SDS011;6149;52.418;13.668;2023-07-02T11:20:42;10.83;;;6.40;;
12171;SDS011;6149;52.418;13.668;2023-07-02T11:23:17;11.03;;;6.57;;
12171;SDS011;6149;52.418;13.668;2023-07-02T11:25:53;11.00;;;6.17;;
12171;SDS011;6149;52.418;13.668;2023-07-02T11:28:27;13.40;;;6.40;;
12171;SDS011;6149;52.418;13.668;2023-07-02T11:30:56;12.23;;;6.63;;
12171;SDS011;6149;52.418;13.668;2023-07-02T11:33:34;12.23;;;6.33;;
12171;SDS011;6149;52.418;13.668;2023-07-02T11:36:05;10.50;;;6.67;;
12171;SDS011;6149;52.418;13.668;2023-07-02T11:38:35;10.00;;;6.90;;
12171;SDS011;6149;52.418;13.668;2023-07-02T11:41:11;12.03;;;7.40;;
12171;SDS011;6149;52.418;13.668;2023-07-02T11:43:44;10.23;;;6.50;;
12171;SDS011;6149;52.418;13.668;2023-07-02T11:46:11;13.90;;;7.37;;
12171;SDS011;6149;52.418;13.668;2023-07-02T11:48:38;11.93;;;6.20;;
12171;SDS011;6149;52.418;13.668;2023-07-02T11:51:05;12.57;;;6.67;;
12171;SDS011;6149;52.418;13.668;2023-07-02T11:53:34;13.57;;;6.83;;
12171;SDS011;6149;52.418;13.668;2023-07-02T11:56:03;11.90;;;6.47;;
12171;SDS011;6149;52.418;13.668;2023-07-02T11:58:29;14.20;;;6.80;;
12171;SDS011;6149;52.418;13.668;2023-07-02T12:00:58;15.07;;;7.57;;
12171;SDS011;6149;52.418;13.668;2023-07-02T12:03:25;12.23;;;6.30;;
12171;SDS011;6149;52.418;13.668;2023-07-02T12:05:52;12.53;;;6.90;;
12171;SDS011;6149;52.418;13.668;2023-07-02T12:08:20;11.93;;;6.70;;
12171;SDS011;6149;52.418;13.668;2023-07-02T12:10:47;13.47;;;6.77;;
12171;SDS011;6149;52.418;13.668;2023-07-02T12:13:14;13.37;;;6.57;;
12171;SDS011;6149;52.418;13.668;2023-07-02T12:15:44;13.73;;;6.87;;
12171;SDS011;6149;52.418;13.668;2023-07-02T12:18:13;11.57;;;7.37;;
12171;SDS011;6149;52.418;13.668;2023-07-02T12:20:40;10.93;;;7.17;;
12171;SDS011;6149;52.418;13.668;2023-07-02T12:23:08;10.13;;;6.43;;
12171;SDS011;6149;52.418;13.668;2023-07-02T12:25:37;10.60;;;6.77;;
12171;SDS011;6149;52.418;13.668;2023-07-02T12:28:05;13.47;;;7.30;;
12171;SDS011;6149;52.418;13.668;2023-07-02T12:30:34;14.37;;;7.30;;
12171;SDS011;6149;52.418;13.668;2023-07-02T12:33:04;11.23;;;6.70;;
12171;SDS011;6149;52.418;13.668;2023-07-02T12:35:40;10.83;;;6.93;;
12171;SDS011;6149;52.418;13.668;2023-07-02T12:38:07;9.87;;;6.20;;
12171;SDS011;6149;52.418;13.668;2023-07-02T12:40:34;13.23;;;7.10;;
12171;SDS011;6149;52.418;13.668;2023-07-02T12:43:03;9.37;;;6.43;;
12171;SDS011;6149;52.418;13.668;2023-07-02T12:45:30;12.27;;;7.37;;
12171;SDS011;6149;52.418;13.668;2023-07-02T12:47:59;12.67;;;6.57;;
12171;SDS011;6149;52.418;13.668;2023-07-02T12:50:25;11.97;;;6.87;;
12171;SDS011;6149;52.418;13.668;2023-07-02T12:52:57;49.07;;;9.73;;
12171;SDS011;6149;52.418;13.668;2023-07-02T12:55:23;11.80;;;7.30;;
12171;SDS011;6149;52.418;13.668;2023-07-02T12:57:51;11.53;;;6.90;;
12171;SDS011;6149;52.418;13.668;2023-07-02T13:00:17;11.50;;;7.17;;
12171;SDS011;6149;52.418;13.668;2023-07-02T13:02:44;10.30;;;6.83;;
12171;SDS011;6149;52.418;13.668;2023-07-02T13:05:13;10.77;;;6.70;;
12171;SDS011;6149;52.418;13.668;2023-07-02T13:07:39;10.43;;;6.87;;
12171;SDS011;6149;52.418;13.668;2023-07-02T13:10:12;12.43;;;7.17;;
12171;SDS011;6149;52.418;13.668;2023-07-02T13:12:40;11.30;;;6.70;;
12171;SDS011;6149;52.418;13.668;2023-07-02T13:15:07;13.77;;;7.27;;
12171;SDS011;6149;52.418;13.668;2023-07-02T13:17:36;12.37;;;7.23;;
12171;SDS011;6149;52.418;13.668;2023-07-02T13:20:04;12.70;;;7.37;;
12171;SDS011;6149;52.418;13.668;2023-07-02T13:22:35;9.37;;;6.30;;
12171;SDS011;6149;52.418;13.668;2023-07-02T13:25:05;11.53;;;6.53;;
12171;SDS011;6149;52.418;13.668;2023-07-02T13:27:42;12.43;;;6.80;;
12171;SDS011;6149;52.418;13.668;2023-07-02T13:30:10;14.97;;;7.87;;
12171;SDS011;6149;52.418;13.668;2023-07-02T13:32:38;8.53;;;6.43;;
12171;SDS011;6149;52.418;13.668;2023-07-02T13:35:06;12.30;;;6.83;;
12171;SDS011;6149;52.418;13.668;2023-07-02T13:37:36;11.53;;;7.20;;
12171;SDS011;6149;52.418;13.668;2023-07-02T13:40:04;11.20;;;6.97;;
12171;SDS011;6149;52.418;13.668;2023-07-02T13:42:35;15.30;;;7.33;;
12171;SDS011;6149;52.418;13.668;2023-07-02T13:45:05;12.63;;;6.73;;
12171;SDS011;6149;52.418;13.668;2023-07-02T13:47:37;10.53;;;7.00;;
12171;SDS011;6149;52.418;13.668;2023-07-02T13:50:05;14.90;;;6.80;;
12171;SDS011;6149;52.418;13.668;2023-07-02T13:52:34;12.97;;;6.60;;
12171;SDS011;6149;52.418;13.668;2023-07-02T13:55:01;9.23;;;6.50;;
12171;SDS011;6149;52.418;13.668;2023-07-02T13:57:27;10.30;;;6.53;;
12171;SDS011;6149;52.418;13.668;2023-07-02T13:59:55;11.67;;;7.30;;
12171;SDS011;6149;52.418;13.668;2023-07-02T14:02:23;11.07;;;6.43;;
12171;SDS011;6149;52.418;13.668;2023-07-02T14:04:49;11.67;;;6.90;;
12171;SDS011;6149;52.418;13.668;2023-07-02T14:07:17;10.13;;;6.83;;
12171;SDS011;6149;52.418;13.668;2023-07-02T14:09:44;10.77;;;6.57;;
12171;SDS011;6149;52.418;13.668;2023-07-02T14:12:12;10.40;;;6.40;;
12171;SDS011;6149;52.418;13.668;2023-07-02T14:14:40;13.50;;;7.03;;
12171;SDS011;6149;52.418;13.668;2023-07-02T14:17:13;9.73;;;6.97;;
12171;SDS011;6149;52.418;13.668;2023-07-02T14:19:40;12.37;;;7.00;;
12171;SDS011;6149;52.418;13.668;2023-07-02T14:22:10;12.00;;;6.37;;
12171;SDS011;6149;52.418;13.668;2023-07-02T14:24:38;12.13;;;6.83;;
12171;SDS011;6149;52.418;13.668;2023-07-02T14:27:05;11.40;;;7.27;;
12171;SDS011;6149;52.418;13.668;2023-07-02T14:29:33;14.50;;;7.07;;
12171;SDS011;6149;52.418;13.668;2023-07-02T14:32:00;11.30;;;6.63;;
12171;SDS011;6149;52.418;13.668;2023-07-02T14:34:28;9.87;;;6.73;;
12171;SDS011;6149;52.418;13.668;2023-07-02T14:36:55;13.33;;;6.73;;
12171;SDS011;6149;52.418;13.668;2023-07-02T14:39:22;11.17;;;7.20;;
12171;SDS011;6149;52.418;13.668;2023-07-02T14:41:48;11.40;;;7.03;;
12171;SDS011;6149;52.418;13.668;2023-07-02T14:44:16;13.80;;;7.53;;
12171;SDS011;6149;52.418;13.668;2023-07-02T14:46:43;14.53;;;7.30;;
12171;SDS011;6149;52.418;13.668;2023-07-02T14:49:11;12.13;;;7.13;;
12171;SDS011;6149;52.418;13.668;2023-07-02T14:51:40;11.80;;;7.17;;
12171;SDS011;6149;52.418;13.668;2023-07-02T14:54:08;12.50;;;7.30;;